Amor, Minnesota
Current Conditions -  °F | °C
As of 10:14 PM on Thursday 27 Nov 2014 (Local Time) from KFFM Reporting Station
Light Snow Light Snow  
Wind Chill: -23°   Ceiling: 1500
Heat Index: -14°   Visibility: 1.5mi
Dew Point: -17°   Wind: 12mph
Humidity: 79%   Direction: 140°SE
Pressure: 30.2"   Gusts: NA
Location:  46.3166°N, 95.7183°W
Report Text: KFFM 280414Z AUTO 14010KT 1 1/2SM -SN OVC015 M14/M17 A3020 RMK AO2
Loading
Personal Weather Stations






























Interactive Weather Map New forecast layout! Learn more

10-Day Weather Forecast

Advertisements
Track Severe Weather on mobile